createdAt,value
2018-12-21T00:01:11.189Z,64.10
2018-12-21T00:03:41.593Z,64.50
2018-12-21T00:06:11.903Z,64.50
2018-12-21T00:08:42.257Z,64.50
2018-12-21T00:11:12.582Z,64.20
2018-12-21T00:13:43.000Z,64.30
2018-12-21T00:16:13.316Z,64.20
2018-12-21T00:18:43.584Z,64.30
2018-12-21T00:21:21.629Z,64.00
2018-12-21T00:23:46.262Z,64.00
2018-12-21T00:26:16.560Z,64.50
2018-12-21T00:28:46.916Z,65.10
2018-12-21T00:31:22.429Z,65.40
2018-12-21T00:33:57.819Z,65.70
2018-12-21T00:36:33.179Z,66.00
2018-12-21T00:39:08.801Z,66.10
2018-12-21T00:41:38.308Z,66.00
2018-12-21T00:44:15.127Z,67.20
2018-12-21T00:46:49.808Z,67.00
2018-12-21T00:49:21.140Z,67.70
2018-12-21T00:51:51.409Z,67.60
2018-12-21T00:54:22.947Z,67.40
2018-12-21T00:56:53.239Z,66.80
2018-12-21T00:59:23.559Z,66.60
2018-12-21T01:01:53.826Z,66.40
2018-12-21T01:04:24.187Z,66.00
2018-12-21T01:06:54.466Z,66.00
2018-12-21T01:09:24.785Z,65.50
2018-12-21T01:11:55.299Z,65.20
2018-12-21T01:14:25.580Z,65.00
2018-12-21T01:16:55.917Z,65.50
2018-12-21T01:19:26.194Z,64.80
2018-12-21T01:21:56.528Z,64.70
2018-12-21T01:24:26.808Z,65.60
2018-12-21T01:26:57.116Z,65.90
2018-12-21T01:29:27.395Z,66.30
2018-12-21T01:31:57.707Z,66.70
2018-12-21T01:34:28.011Z,67.10
2018-12-21T01:36:58.308Z,67.50
2018-12-21T01:39:28.634Z,68.70
2018-12-21T01:41:58.963Z,68.00
2018-12-21T01:44:29.264Z,68.00
2018-12-21T01:46:59.631Z,68.20
2018-12-21T01:49:29.916Z,68.10
2018-12-21T01:52:00.332Z,67.20
2018-12-21T01:54:30.605Z,67.60
2018-12-21T01:57:00.912Z,68.30
2018-12-21T01:59:31.225Z,68.80
2018-12-21T02:02:01.636Z,68.70
2018-12-21T02:04:31.992Z,68.70
2018-12-21T02:07:02.280Z,68.20
2018-12-21T02:09:33.967Z,68.00
2018-12-21T02:12:04.272Z,67.80
2018-12-21T02:14:34.584Z,67.20
2018-12-21T02:17:04.861Z,67.40
2018-12-21T02:19:35.180Z,67.30
2018-12-21T02:22:05.443Z,67.20
2018-12-21T02:24:35.763Z,67.70
2018-12-21T02:27:06.191Z,66.70
2018-12-21T02:29:36.501Z,66.20
2018-12-21T02:32:06.782Z,66.00
2018-12-21T02:34:37.267Z,65.40
2018-12-21T02:37:07.556Z,65.60
2018-12-21T02:39:37.853Z,65.50
2018-12-21T02:42:08.120Z,66.80
2018-12-21T02:44:38.517Z,67.20
2018-12-21T02:47:08.875Z,67.20
2018-12-21T02:49:39.296Z,66.70
2018-12-21T02:52:09.591Z,65.80
2018-12-21T02:54:39.864Z,65.40
2018-12-21T02:57:10.164Z,65.80
2018-12-21T02:59:40.447Z,65.30
2018-12-21T03:02:10.761Z,65.20
2018-12-21T03:04:41.040Z,65.20
2018-12-21T03:07:11.336Z,64.50
2018-12-21T03:09:41.603Z,65.20
2018-12-21T03:12:11.923Z,65.00
2018-12-21T03:14:42.212Z,64.80
2018-12-21T03:17:12.514Z,64.60
2018-12-21T03:19:42.825Z,64.70
2018-12-21T03:22:15.165Z,64.10
2018-12-21T03:24:45.419Z,64.00
2018-12-21T03:27:15.760Z,63.60
2018-12-21T03:29:46.055Z,64.30
2018-12-21T03:32:16.452Z,64.10
2018-12-21T03:34:46.862Z,65.10
2018-12-21T03:37:17.118Z,64.30
2018-12-21T03:39:47.576Z,63.80
2018-12-21T03:42:17.869Z,63.80
2018-12-21T03:44:48.192Z,63.90
2018-12-21T03:47:18.456Z,63.20
2018-12-21T03:49:48.762Z,63.40
2018-12-21T03:52:24.229Z,62.40
2018-12-21T03:54:51.429Z,62.90
2018-12-21T03:57:21.688Z,63.40
2018-12-21T03:59:52.001Z,63.40
2018-12-21T04:02:22.379Z,63.80
2018-12-21T04:04:52.678Z,63.90
2018-12-21T04:07:23.289Z,63.80
2018-12-21T04:09:53.956Z,63.90
2018-12-21T04:12:24.229Z,63.70
2018-12-21T04:14:54.560Z,63.40
2018-12-21T04:17:24.842Z,63.80
2018-12-21T04:19:55.155Z,63.70
2018-12-21T04:22:33.751Z,64.00
2018-12-21T04:24:57.746Z,63.70
2018-12-21T04:27:28.084Z,63.20
2018-12-21T04:29:58.375Z,62.60
2018-12-21T04:32:28.664Z,63.20
2018-12-21T04:34:58.971Z,63.80
2018-12-21T04:37:29.274Z,62.90
2018-12-21T04:39:59.576Z,62.50
2018-12-21T04:42:29.900Z,62.30
2018-12-21T04:45:00.171Z,62.10
2018-12-21T04:47:30.494Z,62.20
2018-12-21T04:50:00.761Z,62.80
2018-12-21T04:52:31.183Z,63.70
2018-12-21T04:55:02.004Z,63.90
2018-12-21T04:57:32.268Z,63.70
2018-12-21T05:00:04.261Z,64.00
2018-12-21T05:02:34.529Z,63.70
2018-12-21T05:05:05.254Z,63.30
2018-12-21T05:07:35.519Z,62.80
2018-12-21T05:10:06.365Z,62.70
2018-12-21T05:12:37.220Z,62.50
2018-12-21T05:15:07.681Z,63.00
2018-12-21T05:17:37.961Z,63.30
2018-12-21T05:20:08.688Z,62.90
2018-12-21T05:22:38.948Z,63.20
2018-12-21T05:25:09.260Z,63.40
2018-12-21T05:27:39.536Z,63.00
2018-12-21T05:30:10.689Z,63.30
2018-12-21T05:32:40.981Z,63.20
2018-12-21T05:35:11.546Z,63.60
2018-12-21T05:37:41.813Z,63.30
2018-12-21T05:40:12.140Z,62.80
2018-12-21T05:42:42.420Z,62.30
2018-12-21T05:45:12.745Z,61.80
2018-12-21T05:47:43.039Z,61.70
2018-12-21T05:50:13.352Z,62.50
2018-12-21T05:52:43.648Z,62.30
2018-12-21T05:55:14.035Z,62.70
2018-12-21T05:57:44.337Z,62.40
2018-12-21T06:00:14.632Z,62.20
2018-12-21T06:02:45.025Z,62.40
2018-12-21T06:05:15.348Z,61.70
2018-12-21T06:07:45.649Z,61.10
2018-12-21T06:10:16.165Z,60.70
2018-12-21T06:12:46.477Z,60.50
2018-12-21T06:15:16.855Z,61.40
2018-12-21T06:17:47.177Z,61.00
2018-12-21T06:20:17.492Z,60.60
2018-12-21T06:22:47.837Z,60.50
2018-12-21T06:25:18.394Z,60.30
2018-12-21T06:27:48.732Z,59.90
2018-12-21T06:30:19.083Z,59.40
2018-12-21T06:32:49.372Z,60.00
2018-12-21T06:35:19.794Z,60.10
2018-12-21T06:37:50.078Z,60.30
2018-12-21T06:40:20.440Z,60.10
2018-12-21T06:42:50.906Z,59.90
2018-12-21T06:45:21.302Z,60.30
2018-12-21T06:47:51.576Z,59.90
2018-12-21T06:50:22.188Z,60.30
2018-12-21T06:52:52.547Z,60.90
2018-12-21T06:55:22.843Z,61.50
2018-12-21T06:57:53.253Z,61.80
2018-12-21T07:00:23.557Z,61.70
2018-12-21T07:02:54.216Z,61.80
2018-12-21T07:05:24.509Z,61.60
2018-12-21T07:07:54.910Z,61.80
2018-12-21T07:10:25.248Z,62.20
2018-12-21T07:12:55.552Z,62.00
2018-12-21T07:15:26.080Z,61.70
2018-12-21T07:17:56.360Z,61.00
2018-12-21T07:20:26.672Z,62.10
2018-12-21T07:22:57.066Z,62.20
2018-12-21T07:25:27.405Z,61.80
2018-12-21T07:27:57.747Z,62.20
2018-12-21T07:30:28.060Z,61.80
2018-12-21T07:32:58.366Z,60.60
2018-12-21T07:35:28.676Z,60.40
2018-12-21T07:37:59.004Z,61.20
2018-12-21T07:40:29.321Z,61.50
2018-12-21T07:42:59.608Z,62.00
2018-12-21T07:45:29.921Z,63.00
2018-12-21T07:48:00.257Z,62.90
2018-12-21T07:50:30.573Z,62.40
2018-12-21T07:53:00.844Z,62.20
2018-12-21T07:55:31.775Z,62.60
2018-12-21T07:58:02.048Z,63.20
2018-12-21T08:00:32.344Z,63.90
2018-12-21T08:03:03.012Z,64.40
2018-12-21T08:05:33.425Z,64.50
2018-12-21T08:08:03.712Z,64.70
2018-12-21T08:10:34.025Z,65.10
2018-12-21T08:13:04.507Z,65.70
2018-12-21T08:15:34.821Z,66.10
2018-12-21T08:18:05.096Z,66.50
2018-12-21T08:20:35.628Z,66.80
2018-12-21T08:23:05.908Z,66.70
2018-12-21T08:25:36.222Z,67.40
2018-12-21T08:28:06.535Z,68.10
2018-12-21T08:30:36.841Z,69.70
2018-12-21T08:33:07.204Z,69.60
2018-12-21T08:35:37.527Z,69.40
2018-12-21T08:38:08.080Z,69.40
2018-12-21T08:40:38.401Z,70.10
2018-12-21T08:43:08.659Z,70.00
2018-12-21T08:45:39.838Z,69.70
2018-12-21T08:48:10.236Z,69.60
2018-12-21T08:50:40.544Z,70.10
2018-12-21T08:53:10.816Z,70.30
2018-12-21T08:55:41.454Z,70.20
2018-12-21T08:58:11.736Z,70.60
2018-12-21T09:00:42.392Z,70.60
2018-12-21T09:03:12.678Z,70.30
2018-12-21T09:05:43.119Z,70.50
2018-12-21T09:08:13.530Z,70.50
2018-12-21T09:10:43.808Z,70.50
2018-12-21T09:13:14.442Z,70.90
2018-12-21T09:15:44.707Z,71.30
2018-12-21T09:18:15.035Z,71.20
2018-12-21T09:20:45.346Z,71.20
2018-12-21T09:23:15.752Z,70.60
2018-12-21T09:25:46.043Z,70.30
2018-12-21T09:28:16.355Z,70.70
2018-12-21T09:30:46.629Z,71.10
2018-12-21T09:33:16.940Z,70.90
2018-12-21T09:35:47.211Z,71.10
2018-12-21T09:38:17.516Z,70.90
2018-12-21T09:40:47.808Z,70.70
2018-12-21T09:43:18.211Z,70.60
2018-12-21T09:45:48.489Z,71.40
2018-12-21T09:48:18.796Z,71.80
2018-12-21T09:50:49.067Z,71.80
2018-12-21T09:53:19.380Z,70.90
2018-12-21T09:55:49.656Z,70.80
2018-12-21T09:58:19.963Z,70.80
2018-12-21T10:00:50.295Z,71.40
2018-12-21T10:03:20.616Z,71.20
2018-12-21T10:05:50.969Z,71.10
2018-12-21T10:08:21.267Z,70.40
2018-12-21T10:10:51.535Z,70.50
2018-12-21T10:13:21.841Z,70.30
2018-12-21T10:15:52.245Z,70.50
2018-12-21T10:18:22.573Z,70.50
2018-12-21T10:20:52.876Z,70.30
2018-12-21T10:23:23.154Z,70.40
2018-12-21T10:25:53.448Z,70.70
2018-12-21T10:28:23.796Z,71.30
2018-12-21T10:30:54.080Z,71.20
2018-12-21T10:33:24.472Z,71.60
2018-12-21T10:35:54.802Z,71.40
2018-12-21T10:38:25.159Z,71.00
2018-12-21T10:40:55.474Z,71.20
2018-12-21T10:43:25.784Z,70.80
2018-12-21T10:45:56.040Z,71.00
2018-12-21T10:48:26.353Z,71.20
2018-12-21T10:50:56.656Z,71.70
2018-12-21T10:53:26.987Z,71.90
2018-12-21T10:55:57.361Z,71.30
2018-12-21T10:58:27.688Z,71.00
2018-12-21T11:00:58.049Z,70.80
2018-12-21T11:03:28.361Z,71.00
2018-12-21T11:05:58.723Z,69.80
2018-12-21T11:08:29.108Z,69.80
2018-12-21T11:10:59.493Z,69.60
2018-12-21T11:13:29.867Z,69.20
2018-12-21T11:16:00.716Z,69.60
2018-12-21T11:18:31.368Z,70.90
2018-12-21T11:21:01.637Z,70.90
2018-12-21T11:23:31.941Z,70.60
2018-12-21T11:26:04.424Z,69.70
2018-12-21T11:28:34.727Z,69.70
2018-12-21T11:31:05.297Z,70.10
2018-12-21T11:33:35.648Z,70.40
2018-12-21T11:36:05.939Z,70.30
2018-12-21T11:38:36.270Z,70.60
2018-12-21T11:41:06.560Z,70.60
2018-12-21T11:43:36.890Z,70.50
2018-12-21T11:46:07.174Z,70.20
2018-12-21T11:48:37.472Z,70.80
2018-12-21T11:51:07.752Z,72.00
2018-12-21T11:53:38.045Z,71.40
2018-12-21T11:56:08.460Z,71.20
2018-12-21T11:58:38.805Z,72.10
2018-12-21T12:01:09.144Z,72.20
2018-12-21T12:03:39.554Z,71.90
2018-12-21T12:06:09.892Z,71.80
2018-12-21T12:08:40.337Z,71.10
2018-12-21T12:11:10.729Z,71.00
2018-12-21T12:13:41.025Z,70.60
2018-12-21T12:16:11.693Z,70.40
2018-12-21T12:18:42.021Z,70.20
2018-12-21T12:21:12.307Z,70.70
2018-12-21T12:23:42.601Z,71.10
2018-12-21T12:26:13.112Z,71.70
2018-12-21T12:28:43.416Z,71.20
2018-12-21T12:31:13.752Z,69.70
2018-12-21T12:33:44.117Z,70.50
2018-12-21T12:36:14.359Z,71.30
2018-12-21T12:38:44.731Z,71.20
2018-12-21T12:41:14.967Z,70.50
2018-12-21T12:43:45.261Z,70.00
2018-12-21T12:46:15.537Z,70.10
2018-12-21T12:48:45.821Z,70.00
2018-12-21T12:51:16.415Z,70.00
2018-12-21T12:53:46.652Z,69.40
2018-12-21T12:56:16.910Z,69.60
2018-12-21T12:58:47.195Z,70.10
2018-12-21T13:01:17.469Z,70.50
2018-12-21T13:03:47.823Z,70.60
2018-12-21T13:06:18.356Z,70.10
2018-12-21T13:08:48.614Z,69.60
2018-12-21T13:11:18.980Z,69.50
2018-12-21T13:13:49.265Z,68.90
2018-12-21T13:16:19.648Z,68.80
2018-12-21T13:18:50.018Z,68.80
2018-12-21T13:21:20.504Z,68.90
2018-12-21T13:23:50.812Z,68.80
2018-12-21T13:26:21.656Z,68.50
2018-12-21T13:28:52.029Z,68.40
2018-12-21T13:31:22.388Z,69.00
2018-12-21T13:33:52.697Z,69.00
2018-12-21T13:36:23.159Z,69.40
2018-12-21T13:38:53.451Z,69.60
2018-12-21T13:41:23.887Z,69.60
2018-12-21T13:43:54.200Z,69.60
2018-12-21T13:46:25.221Z,70.00
2018-12-21T13:48:57.338Z,70.10
2018-12-21T13:51:27.860Z,69.60
2018-12-21T13:53:58.097Z,70.30
2018-12-21T13:56:28.472Z,70.90
2018-12-21T13:58:58.822Z,70.70
2018-12-21T14:01:30.186Z,70.30
2018-12-21T14:04:00.425Z,70.60
2018-12-21T14:06:30.688Z,70.70
2018-12-21T14:09:00.927Z,70.50
2018-12-21T14:11:31.209Z,70.30
2018-12-21T14:14:01.514Z,70.40
2018-12-21T14:16:32.978Z,69.90
2018-12-21T14:19:03.681Z,70.80
2018-12-21T14:21:34.566Z,71.40
2018-12-21T14:24:05.990Z,71.80
2018-12-21T14:26:37.104Z,72.00
2018-12-21T14:29:07.903Z,72.10
2018-12-21T14:31:38.518Z,71.80
2018-12-21T14:34:09.748Z,71.70
2018-12-21T14:36:41.439Z,71.50
2018-12-21T14:39:12.650Z,71.10
2018-12-21T14:41:43.785Z,71.40
2018-12-21T14:44:15.141Z,72.30
2018-12-21T14:46:46.320Z,71.20
2018-12-21T14:49:17.624Z,71.80
2018-12-21T14:51:48.272Z,71.00
2018-12-21T14:54:19.554Z,70.70
2018-12-21T14:56:51.776Z,70.70
2018-12-21T14:59:23.073Z,70.60
2018-12-21T15:01:53.931Z,70.50
2018-12-21T15:04:25.337Z,70.30
2018-12-21T15:06:56.440Z,70.10
2018-12-21T15:09:27.652Z,69.90
2018-12-21T15:11:58.940Z,69.80
2018-12-21T15:14:30.445Z,70.20
2018-12-21T15:17:02.285Z,70.20
2018-12-21T15:19:33.925Z,70.70
2018-12-21T15:22:04.650Z,72.20
2018-12-21T15:24:35.679Z,71.40
2018-12-21T15:27:08.991Z,71.80
2018-12-21T15:29:41.757Z,72.10
2018-12-21T15:32:13.080Z,72.00
2018-12-21T15:34:43.471Z,71.50
2018-12-21T15:37:13.945Z,71.10
2018-12-21T15:39:44.504Z,71.20
2018-12-21T15:42:14.817Z,70.90
2018-12-21T15:44:45.738Z,71.00
2018-12-21T15:47:16.060Z,71.00
2018-12-21T15:49:46.307Z,70.20
2018-12-21T15:52:16.671Z,70.20
2018-12-21T15:54:46.936Z,70.10
2018-12-21T15:57:17.896Z,70.30
2018-12-21T15:59:48.296Z,70.00
2018-12-21T16:02:18.905Z,70.00
2018-12-21T16:04:49.423Z,70.00
2018-12-21T16:07:22.046Z,69.90
2018-12-21T16:09:53.751Z,70.00
2018-12-21T16:12:24.584Z,70.30
2018-12-21T16:14:56.268Z,70.50
2018-12-21T16:17:26.862Z,70.30
2018-12-21T16:19:57.515Z,70.10
2018-12-21T16:22:27.872Z,70.30
2018-12-21T16:24:58.651Z,69.30
2018-12-21T16:27:29.469Z,70.70
2018-12-21T16:29:59.705Z,71.20
2018-12-21T16:32:30.014Z,71.60
2018-12-21T16:35:00.484Z,71.90
2018-12-21T16:37:30.899Z,71.60
2018-12-21T16:40:01.288Z,72.10
2018-12-21T16:42:31.647Z,72.00
2018-12-21T16:45:02.052Z,71.70
2018-12-21T16:47:32.457Z,72.00
2018-12-21T16:50:04.820Z,72.00
2018-12-21T16:52:35.298Z,71.80
2018-12-21T16:55:05.876Z,71.10
2018-12-21T16:57:36.232Z,71.50
2018-12-21T17:00:13.826Z,71.30
2018-12-21T17:02:44.223Z,71.80
2018-12-21T17:05:15.111Z,71.80
2018-12-21T17:07:45.620Z,71.80
2018-12-21T17:10:20.103Z,71.70
2018-12-21T17:12:50.520Z,71.30
2018-12-21T17:15:21.088Z,70.50
2018-12-21T17:17:53.496Z,69.00
2018-12-21T17:20:25.896Z,69.00
2018-12-21T17:22:56.448Z,69.80
2018-12-21T17:25:28.390Z,70.20
2018-12-21T17:27:59.721Z,70.30
2018-12-21T17:30:31.125Z,71.20
2018-12-21T17:33:01.767Z,70.20
2018-12-21T17:35:32.065Z,69.50
2018-12-21T17:38:02.395Z,69.00
2018-12-21T17:40:32.673Z,67.30
2018-12-21T17:43:03.044Z,67.50
2018-12-21T17:45:33.324Z,66.30
2018-12-21T17:48:03.583Z,67.10
2018-12-21T17:50:33.867Z,66.00
2018-12-21T17:53:04.132Z,65.70
2018-12-21T17:55:34.410Z,65.80
2018-12-21T17:58:06.679Z,65.40
2018-12-21T18:00:38.269Z,66.00
2018-12-21T18:03:15.621Z,65.10
2018-12-21T18:05:45.976Z,64.50
2018-12-21T18:08:16.312Z,64.70
2018-12-21T18:10:46.579Z,64.60
2018-12-21T18:13:16.824Z,64.50
2018-12-21T18:15:47.095Z,64.10
2018-12-21T18:18:25.031Z,64.90
2018-12-21T18:20:50.197Z,64.00
2018-12-21T18:23:20.853Z,64.30
2018-12-21T18:25:51.613Z,63.60
2018-12-21T18:28:27.452Z,63.40
2018-12-21T18:31:12.759Z,63.00
2018-12-21T18:33:44.464Z,63.00
2018-12-21T18:36:14.744Z,62.80
2018-12-21T18:38:45.664Z,62.50
2018-12-21T18:41:16.040Z,63.50
2018-12-21T18:43:46.316Z,63.30
2018-12-21T18:46:16.611Z,63.40
2018-12-21T18:48:46.877Z,63.00
2018-12-21T18:51:17.304Z,61.60
2018-12-21T18:53:47.575Z,62.20
2018-12-21T18:56:23.456Z,63.10
2018-12-21T18:58:53.758Z,63.10
2018-12-21T19:01:24.044Z,63.00
2018-12-21T19:03:54.293Z,63.60
2018-12-21T19:06:24.865Z,62.80
2018-12-21T19:08:55.112Z,63.00
2018-12-21T19:11:25.401Z,62.60
2018-12-21T19:13:55.871Z,62.80
2018-12-21T19:16:26.171Z,62.50
2018-12-21T19:18:56.454Z,62.70
2018-12-21T19:21:26.872Z,62.80
2018-12-21T19:23:57.401Z,63.40
2018-12-21T19:26:27.898Z,63.50
2018-12-21T19:28:58.423Z,63.20
2018-12-21T19:31:29.066Z,63.30
2018-12-21T19:33:59.668Z,63.10
2018-12-21T19:36:30.468Z,63.70
2018-12-21T19:39:00.975Z,63.40
2018-12-21T19:41:31.456Z,63.00
2018-12-21T19:44:01.835Z,63.70
2018-12-21T19:46:32.552Z,63.20
2018-12-21T19:49:02.788Z,63.30
2018-12-21T19:51:33.095Z,62.50
2018-12-21T19:54:03.340Z,63.20
2018-12-21T19:56:47.230Z,62.20
2018-12-21T19:59:17.738Z,61.70
2018-12-21T20:01:48.483Z,61.70
2018-12-21T20:04:19.222Z,62.50
2018-12-21T20:06:50.141Z,62.10
2018-12-21T20:09:20.608Z,61.90
2018-12-21T20:11:51.027Z,61.80
2018-12-21T20:14:21.506Z,61.70
2018-12-21T20:16:51.825Z,61.70
2018-12-21T20:19:22.382Z,62.30
2018-12-21T20:21:52.939Z,61.70
2018-12-21T20:24:28.448Z,61.20
2018-12-21T20:27:13.368Z,61.20
2018-12-21T20:29:40.617Z,61.10
2018-12-21T20:32:11.210Z,61.60
2018-12-21T20:34:42.796Z,60.70
2018-12-21T20:37:15.089Z,61.10
2018-12-21T20:39:48.008Z,61.40
2018-12-21T20:42:19.050Z,61.80
2018-12-21T20:44:50.667Z,61.40
2018-12-21T20:47:21.946Z,60.50
2018-12-21T20:49:52.542Z,61.50
2018-12-21T20:52:22.895Z,61.20
2018-12-21T20:54:54.360Z,60.50
2018-12-21T20:57:29.073Z,60.50
2018-12-21T21:00:00.587Z,61.00
2018-12-21T21:02:31.833Z,60.90
2018-12-21T21:05:02.535Z,60.60
2018-12-21T21:07:35.388Z,60.10
2018-12-21T21:10:11.239Z,61.20
2018-12-21T21:12:43.032Z,62.00
2018-12-21T21:15:14.823Z,61.60
2018-12-21T21:17:45.580Z,61.10
2018-12-21T21:20:17.325Z,60.40
2018-12-21T21:22:48.642Z,60.60
2018-12-21T21:25:20.584Z,60.40
2018-12-21T21:27:51.716Z,60.80
2018-12-21T21:30:22.931Z,60.30
2018-12-21T21:32:53.804Z,60.10
2018-12-21T21:35:24.092Z,59.60
2018-12-21T21:37:55.104Z,60.90
2018-12-21T21:40:26.316Z,60.90
2018-12-21T21:42:57.619Z,60.50
2018-12-21T21:45:29.177Z,60.10
2018-12-21T21:48:00.398Z,59.80
2018-12-21T21:50:31.472Z,60.00
2018-12-21T21:53:02.124Z,60.10
2018-12-21T21:55:33.021Z,60.40
2018-12-21T21:58:04.284Z,60.10
2018-12-21T22:00:35.964Z,60.30
2018-12-21T22:03:06.953Z,60.70
2018-12-21T22:05:39.152Z,60.60
2018-12-21T22:08:10.457Z,60.80
2018-12-21T22:10:41.760Z,60.60
2018-12-21T22:13:12.541Z,60.40
2018-12-21T22:15:43.492Z,61.00
2018-12-21T22:18:15.254Z,60.90
2018-12-21T22:20:46.425Z,60.60
2018-12-21T22:23:18.170Z,60.10
2018-12-21T22:25:53.268Z,60.60
2018-12-21T22:28:23.432Z,61.20
2018-12-21T22:30:54.581Z,61.80
2018-12-21T22:33:25.442Z,61.20
2018-12-21T22:35:56.744Z,61.20
2018-12-21T22:38:28.120Z,61.40
2018-12-21T22:40:59.404Z,61.80
2018-12-21T22:43:30.159Z,62.40
2018-12-21T22:46:01.716Z,62.60
2018-12-21T22:48:33.391Z,62.70
2018-12-21T22:51:04.071Z,62.90
2018-12-21T22:53:34.545Z,62.60
2018-12-21T22:56:04.795Z,62.60
2018-12-21T22:58:35.056Z,62.20
2018-12-21T23:01:05.555Z,62.00
2018-12-21T23:03:35.825Z,62.00
2018-12-21T23:06:06.074Z,62.10
2018-12-21T23:08:45.034Z,62.00
2018-12-21T23:11:23.725Z,63.00
2018-12-21T23:14:07.865Z,65.60
2018-12-21T23:16:39.604Z,67.20
2018-12-21T23:19:32.568Z,68.60
2018-12-21T23:22:02.892Z,68.80
2018-12-21T23:24:33.194Z,69.00
2018-12-21T23:27:03.581Z,69.60
2018-12-21T23:29:33.912Z,69.70
2018-12-21T23:32:04.241Z,69.50
2018-12-21T23:34:35.363Z,69.20
2018-12-21T23:37:05.720Z,68.60
2018-12-21T23:39:36.280Z,68.20
2018-12-21T23:42:06.765Z,67.90
2018-12-21T23:44:37.216Z,67.40
2018-12-21T23:47:08.489Z,67.60
2018-12-21T23:49:38.934Z,67.40
2018-12-21T23:52:09.324Z,67.40
2018-12-21T23:54:39.612Z,67.20
2018-12-21T23:57:09.849Z,67.80
2018-12-21T23:59:40.447Z,68.10
